• Join FlightAware (Why Join?)
  • Login
  • US Flag 
11:07PM EDT


 

Airport Tracker/Info


-or-


 

Live Flight TrackerFlight Track Log ✈ EGF3682 ✈ 11-Jun-2013 ✈ KORD - KEWR

Flight Track Log - Related Links

Times and Time Zones

All times are in EDT time to prevent confusion due to time zone crossing. See the EGF3682 flight status page for this flight to view local times or setup timezone preferences in your user account.

Time Position Orientation Groundspeed Altitude Reporting Facility
EDT Latitude Longitude Course Direction KTS MPH feet Rate Location/Type
07:47PM 42.0000 -87.9333 90° East 167 192 1,300  Level Chicago TRACON
07:48PM 42.0500 -87.9167 14° North 232 267 2,900 1,980 Climbing Chicago TRACON
07:49PM 42.1000 -87.8500 45° Northeast 283 326 5,300 2,160 Climbing Chicago TRACON
07:50PM 42.0443 -87.4069 79° East  Level FlightAware Approximate
07:50PM 42.1242 -87.8156 47° Northeast 275 316 6,400  Level Chicago Center
07:51PM 42.0695 -87.2403 78° East  Level FlightAware Approximate
07:51PM 42.1428 -87.7133 76° East 293 337 8,800  Level Chicago Center
07:52PM 42.0960 -87.0739 77° East  Level FlightAware Approximate
07:52PM 42.1367 -87.5697 93° East 320 368 11,400  Level Chicago Center
07:53PM 42.1167 -86.9068 90° East  Level FlightAware Approximate
07:53PM 42.1319 -87.4408 93° East 347 399 12,900  Level Chicago Center
07:54PM 42.1244 -87.2914 94° East 395 455 13,500 960 Climbing Chicago Center
07:55PM 42.1156 -87.1272 94° East 438 504 15,000 1,560 Climbing Chicago Center
07:56PM 42.1158 -86.9622 90° East 445 512 16,800 1,740 Climbing Chicago Center
07:57PM 42.1244 -86.7628 87° East 447 514 18,600 1,500 Climbing Chicago Center
07:58PM 42.1292 -86.5875 88° East 461 531 19,900 1,200 Climbing Chicago Center
07:59PM 42.1342 -86.4117 88° East 469 540 21,100 1,200 Climbing Chicago Center
08:00PM 42.1406 -86.2328 87° East 475 547 22,400 960 Climbing Chicago Center
08:01PM 42.1436 -86.0517 89° East 481 554 23,200 720 Climbing Chicago Center
08:02PM 42.1422 -85.8417 90° East 498 573 24,000 900 Climbing Chicago Center
08:03PM 42.1400 -85.6517 91° East 509 586 25,100 1,440 Climbing Chicago Center
08:04PM 42.1392 -85.4650 90° East 503 579 27,000 1,320 Climbing Chicago Center
08:05PM 42.1364 -85.2811 91° East 498 573 27,900 960 Climbing Chicago Center
08:07PM 42.1344 -85.0531 91° East 511 588 29,000 480 Climbing Chicago Center
08:08PM 42.1311 -84.8606 91° East 515 593 29,000  Level Chicago Center
08:09PM 42.1269 -84.6639 92° East 526 605 29,000  Level Chicago Center
08:10PM 42.1144 -84.4672 95° East 528 608 29,000  Level Chicago Center
08:11PM 42.1019 -84.2708 95° East 530 610 29,000 120 Level Chicago Center
08:12PM 42.0844 -84.0611 96° East 513 590 29,300 960 Climbing Cleveland Center
08:13PM 42.0708 -83.8814 96° East 503 579 31,000 840 Climbing Cleveland Center
08:14PM 42.0592 -83.7100 95° East 502 578 31,000  Level Cleveland Center
08:15PM 42.0458 -83.4969 95° East 519 597 31,000  Level Cleveland Center
08:16PM 42.0322 -83.2950 95° East 524 603 31,000  Level Cleveland Center
08:17PM 42.0175 -83.1181 96° East 536 617 31,000  Level Cleveland Center
08:18PM 42.0008 -82.9164 96° East 542 624 31,000  Level Cleveland Center
08:19PM 41.9858 -82.7203 96° East 537 618 31,000  Level Cleveland Center
08:20PM 41.9728 -82.5269 95° East 531 611 31,000  Level Cleveland Center
08:21PM 41.9569 -82.3394 96° East 521 600 31,000  Level Cleveland Center
08:22PM 41.9389 -82.1492 97° East 516 594 31,000  Level Cleveland Center
08:23PM 41.9228 -81.9367 96° East 516 594 31,000  Level Cleveland Center
08:24PM 41.9083 -81.7467 96° East 525 604 31,000  Level Cleveland Center
08:25PM 41.8911 -81.5539 97° East 520 598 31,000  Level Cleveland Center
08:26PM 41.8719 -81.3583 97° East 518 596 31,000  Level Cleveland Center
08:27PM 41.8542 -81.1658 97° East 523 602 31,000  Level Cleveland Center
08:28PM 41.8383 -80.9733 96° East 518 596 31,000  Level Cleveland Center
08:29PM 41.8200 -80.7811 97° East 523 602 31,000  Level Cleveland Center
08:30PM 41.8017 -80.6083 98° East 523 602 31,000  Level Cleveland Center
08:31PM 41.7828 -80.4189 98° East 518 596 31,000  Level Cleveland Center
08:32PM 41.7636 -80.2269 98° East 518 596 31,000  Level Cleveland Center
08:33PM 41.7439 -80.0294 98° East 526 605 31,000  Level Cleveland Center
08:34PM 41.7261 -79.8431 97° East 520 598 31,000  Level Cleveland Center
08:35PM 41.7017 -79.6347 99° East 520 598 31,000  Level Cleveland Center
08:36PM 41.6856 -79.4597 97° East 513 590 31,000  Level Cleveland Center
08:37PM 41.6625 -79.2544 98° East 513 590 31,000  Level Cleveland Center
08:38PM 41.6436 -79.0800 98° East 521 600 31,000  Level Cleveland Center
08:39PM 41.6203 -78.8889 99° East 521 600 31,000  Level Cleveland Center
08:40PM 41.5983 -78.6950 99° East 521 600 31,000  Level Cleveland Center
08:41PM 41.5764 -78.5042 99° East 521 600 31,000  Level Cleveland Center
08:42PM 41.5492 -78.2694 99° East 504 580 31,000  Level New York Center
08:43PM 41.5258 -78.0783 99° East 509 586 31,000  Level New York Center
08:44PM 41.5000 -77.8844 100° East 516 594 31,000  Level New York Center
08:45PM 41.4736 -77.6961 101° East 516 594 31,000  Level New York Center
08:46PM 41.4469 -77.5078 101° East 516 594 31,000 -300 Level New York Center
08:47PM 41.4178 -77.3194 102° East 516 594 30,500 -780 Descending New York Center
08:48PM 41.3906 -77.1342 101° East 516 594 29,500 -780 Descending New York Center
08:49PM 41.3647 -76.9492 100° East 516 594 29,000 -300 Descending New York Center
08:50PM 41.3328 -76.7639 103° East 516 594 29,000 -1,200 Level New York Center
08:51PM 41.2856 -76.5803 109° East 516 594 26,600 -3,000 Descending New York Center
08:52PM 41.2358 -76.3994 110° East 521 600 23,100 -3,480 Descending New York Center
08:53PM 41.1839 -76.2186 111° Southeast 521 600 19,800 -2,700 Descending New York Center
08:54PM 41.1453 -76.0583 108° East 487 560 17,600 -2,100 Descending New York Center
08:55PM 41.1061 -75.9122 110° East 471 542 15,600 -1,920 Descending New York Center
08:56PM 41.0625 -75.7575 110° East 461 531 13,900 -1,320 Descending New York Center
08:57PM 41.0172 -75.5947 110° East 434 499 13,000 -900 Descending New York Center
08:58PM 40.9811 -75.4600 110° East 411 473 12,100 -1,200 Descending New York Center
08:59PM 40.9481 -75.3481 111° Southeast 378 435 10,600 -1,560 Descending New York Center
09:00PM 40.9111 -75.2219 111° Southeast 352 405 9,000 -1,620 Descending New York Center
09:01PM 40.8800 -75.1072 110° East 330 380 7,400 -1,020 Descending New York Center
09:02PM 40.8483 -75.0011 111° Southeast 320 368 7,000 -240 Descending New York Center
09:03PM 40.8464 -74.8831 91° East 309 356 7,000 -60 Level New York Center
09:04PM 40.8561 -74.7767 83° East 309 356 6,900 -660 Descending New York Center
09:05PM 40.8683 -74.6647 82° East 309 356 5,800 -960 Descending New York Center
09:06PM 40.8781 -74.5528 83° East 309 356 5,000 -420 Descending New York Center
09:07PM 40.8900 -74.4436 82° East 309 356 5,000  Level New York Center
09:08PM 40.9017 -74.3317 82° East 309 356 5,000  Level New York Center
09:09PM 40.9167 -74.2167 80° East 300 345 5,000 -660 Level New York TRACON
09:10PM 40.8833 -74.1167 114° Southeast 282 325 3,700 -1,200 Descending New York TRACON
09:11PM 40.8167 -74.1000 169° South 220 253 2,600 -1,140 Descending New York TRACON